Time;durP1;ratioP1;P1;durP2;ratioP2;P2;SDS_P1;SDS_P2;PMS_P1;PMS_P2;Temp;Humidity;BMP_temperature;BMP_pressure;BME280_temperature;BME280_humidity;BME280_pressure;Samples;Min_cycle;Max_cycle;Signal;HPM_P1;HPM_P2
2021/09/30 00:02:10;;;;;;;2;0.5;;;;;;;;;;;;;
2021/09/30 00:04:36;;;;;;;0.3;0.3;;;;;;;;;;;;;
2021/09/30 00:07:05;;;;;;;1.6;0.5;;;;;;;;;;;;;
2021/09/30 00:09:26;;;;;;;1.2;0.5;;;;;;;;;;;;;
2021/09/30 00:12:00;;;;;;;0.6;0.4;;;;;;;;;;;;;
2021/09/30 00:14:23;;;;;;;0.8;0.4;;;;;;;;;;;;;
2021/09/30 00:33:46;;;;;;;0.6;0.3;;;;;;;;;;;;;
2021/09/30 00:36:10;;;;;;;1.6;0.6;;;;;;;;;;;;;
2021/09/30 00:41:08;;;;;;;0.8;0.4;;;;;;;;;;;;;
2021/09/30 00:45:51;;;;;;;1.4;0.4;;;;;;;;;;;;;
2021/09/30 00:48:15;;;;;;;0.3;0.3;;;;;;;;;;;;;
2021/09/30 00:50:41;;;;;;;3.3;0.6;;;;;;;;;;;;;
2021/09/30 00:53:14;;;;;;;1.1;0.5;;;;;;;;;;;;;
2021/09/30 01:20:15;;;;;;;1;0.5;;;;;;;;;;;;;
2021/09/30 01:23:03;;;;;;;0.4;0.3;;;;;;;;;;;;;
2021/09/30 01:40:27;;;;;;;1.2;0.4;;;;;;;;;;;;;
2021/09/30 02:20:28;;;;;;;1.2;0.5;;;;;;;;;;;;;
2021/09/30 02:22:51;;;;;;;0.5;0.5;;;;;;;;;;;;;
2021/09/30 02:27:57;;;;;;;1;0.6;;;;;;;;;;;;;
2021/09/30 02:30:13;;;;;;;0.7;0.4;;;;;;;;;;;;;
2021/09/30 02:39:57;;;;;;;1.5;0.5;;;;;;;;;;;;;
2021/09/30 02:58:56;;;;;;;1.1;0.6;;;;;;;;;;;;;
2021/09/30 03:01:20;;;;;;;4.1;0.7;;;;;;;;;;;;;
2021/09/30 03:03:45;;;;;;;1.2;0.5;;;;;;;;;;;;;
2021/09/30 03:06:11;;;;;;;1.4;0.6;;;;;;;;;;;;;
2021/09/30 03:08:41;;;;;;;0.9;0.7;;;;;;;;;;;;;
2021/09/30 03:11:01;;;;;;;0.6;0.6;;;;;;;;;;;;;
2021/09/30 03:13:26;;;;;;;1.3;0.5;;;;;;;;;;;;;
2021/09/30 03:15:55;;;;;;;0.7;0.5;;;;;;;;;;;;;
2021/09/30 03:18:28;;;;;;;0.7;0.7;;;;;;;;;;;;;
2021/09/30 03:20:46;;;;;;;3.7;0.7;;;;;;;;;;;;;
2021/09/30 03:23:06;;;;;;;1.2;0.5;;;;;;;;;;;;;
2021/09/30 03:25:31;;;;;;;0.4;0.4;;;;;;;;;;;;;
2021/09/30 03:27:56;;;;;;;0.7;0.5;;;;;;;;;;;;;
2021/09/30 03:30:22;;;;;;;1.4;0.5;;;;;;;;;;;;;
2021/09/30 03:32:47;;;;;;;1;0.6;;;;;;;;;;;;;
2021/09/30 03:35:13;;;;;;;0.6;0.6;;;;;;;;;;;;;
2021/09/30 03:37:38;;;;;;;0.5;0.5;;;;;;;;;;;;;
2021/09/30 03:40:04;;;;;;;0.5;0.5;;;;;;;;;;;;;
2021/09/30 03:42:29;;;;;;;0.8;0.4;;;;;;;;;;;;;
2021/09/30 03:44:55;;;;;;;0.5;0.5;;;;;;;;;;;;;
2021/09/30 03:47:19;;;;;;;0.5;0.5;;;;;;;;;;;;;
2021/09/30 03:49:47;;;;;;;0.6;0.4;;;;;;;;;;;;;
2021/09/30 03:52:13;;;;;;;0.4;0.4;;;;;;;;;;;;;
2021/09/30 03:54:41;;;;;;;0.8;0.5;;;;;;;;;;;;;
2021/09/30 03:57:06;;;;;;;0.6;0.5;;;;;;;;;;;;;
2021/09/30 03:59:25;;;;;;;1.4;0.5;;;;;;;;;;;;;
2021/09/30 04:02:31;;;;;;;2.1;0.7;;;;;;;10.17;91.22852;948.7912;;;;
2021/09/30 04:04:56;;;;;;;1.8;0.6;;;;;;;10.27;91.31738;948.8447;;;;
2021/09/30 04:07:23;;;;;;;0.9;0.6;;;;;;;10.36;92.1582;948.8513;;;;
2021/09/30 04:09:48;;;;;;;0.9;0.7;;;;;;;10.42;91.93164;948.9023;;;;
2021/09/30 04:12:15;;;;;;;0.5;0.5;;;;;;;10.49;91.31934;948.9202;;;;
2021/09/30 04:14:40;;;;;;;2.5;0.5;;;;;;;10.41;90.99414;948.8577;;;;
2021/09/30 04:17:06;;;;;;;1;0.5;;;;;;;10.4;90.91406;948.9105;;;;
2021/09/30 04:19:32;;;;;;;1.8;0.7;;;;;;;10.47;89.85449;948.8775;;;;
2021/09/30 04:21:59;;;;;;;0.9;0.6;;;;;;;10.53;89;948.9564;;;;
2021/09/30 04:24:24;;;;;;;1.4;0.7;;;;;;;10.51;90.18359;948.8883;;;;
2021/09/30 04:26:49;;;;;;;1.1;0.6;;;;;;;10.53;89.08008;948.9595;;;;
2021/09/30 04:29:14;;;;;;;1.3;0.6;;;;;;;10.58;88.32617;948.8789;;;;
2021/09/30 04:31:39;;;;;;;1.9;0.6;;;;;;;10.55;88.20215;948.8365;;;;
2021/09/30 04:34:05;;;;;;;1;0.5;;;;;;;10.58;88.23242;948.9138;;;;
2021/09/30 04:36:30;;;;;;;1.4;0.7;;;;;;;10.55;89.07227;948.9825;;;;
2021/09/30 04:38:55;;;;;;;0.8;0.7;;;;;;;10.6;88.625;948.9128;;;;
2021/09/30 04:41:21;;;;;;;0.7;0.7;;;;;;;10.6;89.04883;948.9495;;;;
2021/09/30 04:43:46;;;;;;;0.6;0.5;;;;;;;10.59;86.99023;948.9675;;;;
2021/09/30 04:46:12;;;;;;;0.8;0.6;;;;;;;10.55;88.61523;948.9744;;;;
2021/09/30 04:48:37;;;;;;;0.8;0.5;;;;;;;10.56;89.9873;948.9891;;;;
2021/09/30 04:51:04;;;;;;;0.5;0.5;;;;;;;10.55;90.20215;948.9539;;;;
2021/09/30 04:53:29;;;;;;;3.6;0.9;;;;;;;10.64;90.41504;948.9454;;;;
2021/09/30 04:55:55;;;;;;;1.4;0.8;;;;;;;10.69;90.88184;948.9769;;;;
2021/09/30 04:58:20;;;;;;;1.2;0.7;;;;;;;10.57;91.3252;948.9456;;;;
2021/09/30 05:00:46;;;;;;;2.9;0.9;;;;;;;10.55;91.40137;948.8948;;;;
2021/09/30 05:03:11;;;;;;;0.6;0.6;;;;;;;10.58;90.99609;948.9258;;;;
2021/09/30 05:05:38;;;;;;;0.8;0.8;;;;;;;10.61;90.69336;948.9194;;;;
2021/09/30 05:08:03;;;;;;;1.6;0.6;;;;;;;10.69;90.48242;948.8781;;;;
2021/09/30 05:10:33;;;;;;;0.9;0.6;;;;;;;10.64;90.35645;948.8544;;;;
2021/09/30 05:12:57;;;;;;;2.5;0.8;;;;;;;10.54;90.09766;948.8723;;;;
2021/09/30 05:15:22;;;;;;;2.5;0.8;;;;;;;10.55;90.8877;948.8741;;;;
2021/09/30 05:17:47;;;;;;;1.1;0.8;;;;;;;10.59;90.74707;948.8631;;;;
2021/09/30 05:20:13;;;;;;;1.1;0.7;;;;;;;10.42;90.17578;948.827;;;;
2021/09/30 05:22:38;;;;;;;0.8;0.6;;;;;;;10.4;89.95508;948.8236;;;;
2021/09/30 05:25:04;;;;;;;0.5;0.5;;;;;;;10.28;89.94043;948.849;;;;
2021/09/30 05:27:29;;;;;;;0.9;0.5;;;;;;;10.31;90.19727;948.9033;;;;
2021/09/30 05:29:54;;;;;;;0.9;0.6;;;;;;;10.4;90.10156;948.8538;;;;
2021/09/30 05:32:20;;;;;;;0.9;0.8;;;;;;;10.48;89.17188;948.9512;;;;
2021/09/30 05:34:46;;;;;;;1;0.5;;;;;;;10.44;89.27832;948.9207;;;;
2021/09/30 05:37:11;;;;;;;0.8;0.7;;;;;;;10.49;89.13867;948.9218;;;;
2021/09/30 05:39:37;;;;;;;2;0.7;;;;;;;10.55;89.96289;948.9187;;;;
2021/09/30 05:42:03;;;;;;;0.7;0.6;;;;;;;10.62;89.2793;948.8611;;;;
2021/09/30 05:44:31;;;;;;;1;0.9;;;;;;;10.64;90.41406;948.8631;;;;
2021/09/30 05:46:56;;;;;;;1;0.8;;;;;;;10.7;91.61621;948.8911;;;;
2021/09/30 05:49:18;;;;;;;1.1;1;;;;;;;10.75;91.41895;948.9177;;;;
2021/09/30 05:51:44;;;;;;;1;1;;;;;;;10.82;90.31445;948.8992;;;;
2021/09/30 05:54:09;;;;;;;3.3;1.7;;;;;;;10.94;89.5752;948.861;;;;
2021/09/30 05:56:36;;;;;;;1.3;1;;;;;;;11.04;88.83008;948.909;;;;
2021/09/30 05:59:01;;;;;;;1.7;0.8;;;;;;;11.1;88.72852;948.9241;;;;
2021/09/30 06:01:55;;;;;;;1.1;0.9;;;;;;;11.07;88.99707;948.8572;;;;
2021/09/30 06:11:18;;;;;;;0.6;0.6;;;;;;;11.11;87.7373;948.8933;;;;
2021/09/30 06:13:36;;;;;;;0.9;0.6;;;;;;;11.22;86.89941;948.9097;;;;
2021/09/30 06:15:58;;;;;;;0.9;0.7;;;;;;;11.27;86.51074;948.9349;;;;
2021/09/30 06:18:23;;;;;;;1;0.8;;;;;;;11.41;86.54883;948.8719;;;;
2021/09/30 06:20:48;;;;;;;1.3;0.7;;;;;;;11.36;85.81738;948.8883;;;;
2021/09/30 06:23:13;;;;;;;2.3;0.6;;;;;;;11.22;85.70996;948.9216;;;;
2021/09/30 06:25:38;;;;;;;0.7;0.7;;;;;;;11.32;87.09082;948.9423;;;;
2021/09/30 06:28:07;;;;;;;3.7;1.1;;;;;;;11.29;87.1543;948.8706;;;;
2021/09/30 06:30:31;;;;;;;2.1;1;;;;;;;11.22;86.25977;948.9231;;;;
2021/09/30 06:32:55;;;;;;;1;0.9;;;;;;;11.11;88.05566;948.9417;;;;
2021/09/30 06:35:21;;;;;;;1.4;0.8;;;;;;;11.16;89.26563;948.9357;;;;
2021/09/30 06:37:46;;;;;;;2.2;0.7;;;;;;;11.2;88.84961;949.0005;;;;
2021/09/30 06:40:13;;;;;;;1;0.6;;;;;;;11.37;89.11523;948.9858;;;;
2021/09/30 06:42:38;;;;;;;2.2;0.9;;;;;;;11.6;89.50488;949.0009;;;;
2021/09/30 06:45:03;;;;;;;1.3;1.1;;;;;;;11.74;86.35059;948.99;;;;
2021/09/30 06:47:29;;;;;;;1.9;1;;;;;;;11.51;84.29102;948.9079;;;;
2021/09/30 06:49:55;;;;;;;2.8;0.9;;;;;;;11.35;85.41699;948.9807;;;;
2021/09/30 06:52:20;;;;;;;2.4;1;;;;;;;11.41;85.05176;948.9106;;;;
2021/09/30 06:54:45;;;;;;;1.2;0.8;;;;;;;11.65;84.31738;948.9489;;;;
2021/09/30 06:57:10;;;;;;;1.6;0.8;;;;;;;12.05;82.87305;948.9218;;;;
2021/09/30 06:59:37;;;;;;;2.4;0.7;;;;;;;12.55;82.15332;948.9099;;;;
2021/09/30 07:02:06;;;;;;;0.5;0.5;;;;;;;12.83;75.88184;948.942;;;;
2021/09/30 07:04:27;;;;;;;1.3;0.4;;;;;;;13.11;73.53027;948.8799;;;;
2021/09/30 07:06:53;;;;;;;1.1;0.6;;;;;;;13.47;73.96094;948.7955;;;;
2021/09/30 07:09:18;;;;;;;0.6;0.5;;;;;;;14.05;72.36523;948.8934;;;;
2021/09/30 07:11:43;;;;;;;0.9;0.5;;;;;;;14.36;72.07031;948.9423;;;;
2021/09/30 07:14:09;;;;;;;1.2;0.6;;;;;;;14.79;71.94629;948.916;;;;
2021/09/30 07:16:34;;;;;;;1.8;0.5;;;;;;;14.47;68.10254;948.8889;;;;
2021/09/30 07:18:59;;;;;;;0.5;0.5;;;;;;;14.98;66.45313;948.8477;;;;
2021/09/30 07:21:30;;;;;;;1;0.5;;;;;;;15.26;66.17285;948.8137;;;;
2021/09/30 07:23:52;;;;;;;0.8;0.4;;;;;;;15.1;67.38184;948.8586;;;;
2021/09/30 07:26:17;;;;;;;0.9;0.6;;;;;;;15.3;65.71582;948.9272;;;;
2021/09/30 07:28:42;;;;;;;1.1;0.5;;;;;;;15.66;62.18848;948.9182;;;;
2021/09/30 07:31:09;;;;;;;1.4;0.5;;;;;;;15.95;61.0166;948.884;;;;
2021/09/30 07:33:34;;;;;;;0.8;0.4;;;;;;;16.1;59.5332;948.9319;;;;
2021/09/30 07:36:00;;;;;;;1;0.3;;;;;;;15.29;61.71973;948.9055;;;;
2021/09/30 07:38:25;;;;;;;0.5;0.3;;;;;;;14.87;59.79297;948.8209;;;;
2021/09/30 07:41:02;;;;;;;0.8;0.5;;;;;;;15.29;58.0498;948.8558;;;;
2021/09/30 07:43:27;;;;;;;0.3;0.3;;;;;;;15.68;61.45313;948.8692;;;;
2021/09/30 07:45:52;;;;;;;0.4;0.4;;;;;;;15.86;62.71484;948.8772;;;;
2021/09/30 07:48:17;;;;;;;1.2;0.6;;;;;;;15.87;61.66406;948.8667;;;;
2021/09/30 07:50:42;;;;;;;0.7;0.4;;;;;;;15.93;60.49316;948.8711;;;;
2021/09/30 07:53:08;;;;;;;0.7;0.5;;;;;;;15.99;59.58789;948.8425;;;;
2021/09/30 07:55:33;;;;;;;0.3;0.3;;;;;;;16.73;59.45703;948.8295;;;;
2021/09/30 07:58:00;;;;;;;0.4;0.4;;;;;;;17.55;58.91797;948.8395;;;;
2021/09/30 08:00:25;;;;;;;0.5;0.3;;;;;;;17.36;55.86621;948.8554;;;;
2021/09/30 08:02:50;;;;;;;0.5;0.3;;;;;;;17.88;53.51758;948.8594;;;;
2021/09/30 08:05:15;;;;;;;1.4;0.3;;;;;;;18.69;51.17285;948.8494;;;;
2021/09/30 08:07:43;;;;;;;1;0.3;;;;;;;19.64;46.02539;948.916;;;;
2021/09/30 08:10:08;;;;;;;1.3;0.4;;;;;;;20.56;45.35059;948.9371;;;;
2021/09/30 08:12:33;;;;;;;0.6;0.2;;;;;;;19.91;45.40039;948.8887;;;;
2021/09/30 08:15:00;;;;;;;0.3;0.2;;;;;;;21.02;42.61523;948.8672;;;;
2021/09/30 08:17:25;;;;;;;0.9;0.2;;;;;;;21.67;39.9248;948.8181;;;;
2021/09/30 08:19:51;;;;;;;0.3;0.3;;;;;;;20.1;43.32031;948.8152;;;;
2021/09/30 08:22:16;;;;;;;0.7;0.3;;;;;;;18.68;47.40332;948.8542;;;;
2021/09/30 08:24:42;;;;;;;0.7;0.3;;;;;;;17.97;49.97461;948.8577;;;;
2021/09/30 08:27:09;;;;;;;0.6;0.3;;;;;;;17.63;52.32617;948.81;;;;
2021/09/30 08:29:35;;;;;;;1;0.5;;;;;;;18.04;50.86523;948.8449;;;;
2021/09/30 08:31:59;;;;;;;1.5;0.4;;;;;;;18.54;47.96973;948.7899;;;;
2021/09/30 08:34:25;;;;;;;0.3;0.3;;;;;;;18.69;47.6377;948.8478;;;;
2021/09/30 08:36:50;;;;;;;0.6;0.3;;;;;;;19.06;48.24805;948.8931;;;;
2021/09/30 08:39:16;;;;;;;0.5;0.3;;;;;;;19.13;47.20703;948.8508;;;;
2021/09/30 08:41:42;;;;;;;1.2;0.3;;;;;;;19.42;44.25488;948.8522;;;;
2021/09/30 08:44:07;;;;;;;0.8;0.4;;;;;;;19.34;43.73438;948.8205;;;;
2021/09/30 08:46:33;;;;;;;0.8;0.4;;;;;;;18.54;49.0498;948.8003;;;;
2021/09/30 08:48:58;;;;;;;0.3;0.3;;;;;;;18.82;49.07031;948.8264;;;;
2021/09/30 08:51:24;;;;;;;0.7;0.4;;;;;;;18.23;49.50488;948.8511;;;;
2021/09/30 08:53:49;;;;;;;0.4;0.4;;;;;;;17.77;48.08203;948.8094;;;;
2021/09/30 08:56:16;;;;;;;0.3;0.3;;;;;;;18.03;46.90332;948.8578;;;;
2021/09/30 08:58:41;;;;;;;0.3;0.2;;;;;;;17.58;49.43164;948.875;;;;
2021/09/30 09:01:06;;;;;;;0.6;0.3;;;;;;;17.35;49.32422;948.8964;;;;
2021/09/30 09:03:31;;;;;;;1.1;0.4;;;;;;;16.66;51.23926;948.9102;;;;
2021/09/30 09:05:58;;;;;;;2.8;0.5;;;;;;;17.05;51.92188;948.9442;;;;
2021/09/30 09:08:23;;;;;;;1.6;0.4;;;;;;;16.96;55.02832;948.988;;;;
2021/09/30 09:10:48;;;;;;;0.3;0.3;;;;;;;16.47;55.67188;948.8691;;;;
2021/09/30 09:13:13;;;;;;;2.8;0.7;;;;;;;16.62;53.93164;948.8867;;;;
2021/09/30 09:15:38;;;;;;;0.5;0.4;;;;;;;16.6;55.46875;948.8984;;;;
2021/09/30 09:18:03;;;;;;;0.9;0.5;;;;;;;16.68;52.45703;948.8631;;;;
2021/09/30 09:20:29;;;;;;;1;0.3;;;;;;;16.68;51.12402;948.818;;;;
2021/09/30 09:22:53;;;;;;;1.7;0.3;;;;;;;17.2;50.80371;948.8655;;;;
2021/09/30 09:27:54;;;;;;;1.8;0.3;;;;;;;17.35;51.93359;948.8088;;;;
2021/09/30 09:30:19;;;;;;;1.1;0.4;;;;;;;17.72;53.81055;948.8474;;;;
2021/09/30 09:32:46;;;;;;;1.8;0.7;;;;;;;17.84;48.34668;948.7523;;;;
2021/09/30 09:35:13;;;;;;;0.8;0.5;;;;;;;18.33;46.40039;948.7202;;;;
2021/09/30 09:37:38;;;;;;;0.6;0.4;;;;;;;18.11;50.57031;948.7795;;;;
2021/09/30 09:40:03;;;;;;;1.5;0.6;;;;;;;18.61;47.75586;948.7855;;;;
2021/09/30 09:42:28;;;;;;;0.5;0.2;;;;;;;18.93;45.45117;948.7281;;;;
2021/09/30 09:44:53;;;;;;;0.7;0.3;;;;;;;18.2;50.52344;948.7034;;;;
2021/09/30 09:47:18;;;;;;;1.2;0.4;;;;;;;17.81;51.75586;948.7255;;;;
2021/09/30 09:49:43;;;;;;;1.5;0.4;;;;;;;18.23;49.19141;948.7221;;;;
2021/09/30 09:52:09;;;;;;;0.5;0.4;;;;;;;17.18;51.0791;948.7327;;;;
2021/09/30 09:54:35;;;;;;;0.4;0.3;;;;;;;17.16;52.87305;948.7222;;;;
2021/09/30 09:57:00;;;;;;;0.7;0.4;;;;;;;17.47;50.47559;948.623;;;;
2021/09/30 09:59:25;;;;;;;0.6;0.4;;;;;;;17.06;53.15039;948.6351;;;;
2021/09/30 10:01:53;;;;;;;0.5;0.3;;;;;;;16.77;52.13086;948.6027;;;;
2021/09/30 10:04:17;;;;;;;1.3;0.4;;;;;;;17.19;52.25098;948.4976;;;;
2021/09/30 10:06:43;;;;;;;0.6;0.3;;;;;;;17.55;50.33301;948.4344;;;;
2021/09/30 10:09:08;;;;;;;0.7;0.7;;;;;;;17.6;50.11816;948.3925;;;;
2021/09/30 10:11:33;;;;;;;0.7;0.4;;;;;;;18.04;49.35449;948.3782;;;;
2021/09/30 10:13:59;;;;;;;1.1;0.5;;;;;;;17.46;52.0166;948.3588;;;;
2021/09/30 10:16:27;;;;;;;0.5;0.3;;;;;;;17.6;52.06738;948.3635;;;;
2021/09/30 10:18:49;;;;;;;0.6;0.3;;;;;;;17.37;52.85254;948.3256;;;;
2021/09/30 10:21:14;;;;;;;0.5;0.4;;;;;;;17.9;52.5791;948.3663;;;;
2021/09/30 10:23:40;;;;;;;0.3;0.2;;;;;;;17.51;51.57031;948.3193;;;;
2021/09/30 10:26:06;;;;;;;0.5;0.4;;;;;;;18.13;50.58496;948.3416;;;;
2021/09/30 10:28:31;;;;;;;0.4;0.4;;;;;;;18.72;48.61621;948.307;;;;
2021/09/30 10:30:57;;;;;;;1.3;0.4;;;;;;;18.32;51.5957;948.2799;;;;
2021/09/30 10:33:23;;;;;;;0.3;0.3;;;;;;;17.69;52.03125;948.2068;;;;
2021/09/30 10:35:47;;;;;;;0.3;0.3;;;;;;;17.62;55.19043;948.0746;;;;
2021/09/30 10:38:12;;;;;;;0.8;0.4;;;;;;;17.84;52.36426;948.04;;;;
2021/09/30 10:40:37;;;;;;;1.3;0.2;;;;;;;17.6;50.81348;948.0139;;;;
2021/09/30 10:43:02;;;;;;;1.7;0.5;;;;;;;16.94;52.85938;948.098;;;;
2021/09/30 10:45:27;;;;;;;1;0.4;;;;;;;17.4;52.9834;947.9528;;;;
2021/09/30 10:47:53;;;;;;;0.7;0.4;;;;;;;17.09;54.42871;947.9792;;;;
2021/09/30 10:50:17;;;;;;;0.6;0.3;;;;;;;17.4;49.00488;947.9182;;;;
2021/09/30 10:52:42;;;;;;;0.5;0.3;;;;;;;17.49;50.97559;947.9046;;;;
2021/09/30 10:55:10;;;;;;;0.4;0.3;;;;;;;17.88;50.56738;947.9191;;;;
2021/09/30 10:57:40;;;;;;;0.8;0.5;;;;;;;18.04;51.17969;947.8591;;;;
2021/09/30 11:00:05;;;;;;;0.3;0.3;;;;;;;18.34;49.00586;947.7838;;;;
2021/09/30 11:02:30;;;;;;;0.9;0.4;;;;;;;18.16;52.36523;947.8175;;;;
2021/09/30 11:04:55;;;;;;;0.4;0.3;;;;;;;18.2;49.2334;947.6794;;;;
2021/09/30 11:07:20;;;;;;;0.9;0.3;;;;;;;17.99;47.34082;947.6398;;;;
2021/09/30 11:09:45;;;;;;;0.4;0.4;;;;;;;17.61;50.8623;947.6184;;;;
2021/09/30 11:12:10;;;;;;;0.5;0.2;;;;;;;18.01;47.96973;947.63;;;;
2021/09/30 11:14:36;;;;;;;0.4;0.3;;;;;;;18.02;52.38477;947.6131;;;;
2021/09/30 11:17:01;;;;;;;0.5;0.3;;;;;;;18.55;48.38965;947.5894;;;;
2021/09/30 11:19:26;;;;;;;1.4;0.3;;;;;;;18.61;46.92969;947.6043;;;;
2021/09/30 11:21:51;;;;;;;1.3;0.1;;;;;;;18.51;48.94336;947.5421;;;;
2021/09/30 11:24:16;;;;;;;0.3;0.3;;;;;;;18.19;50.40527;947.5698;;;;
2021/09/30 11:26:41;;;;;;;0.7;0.4;;;;;;;18.78;47.37891;947.44;;;;
2021/09/30 11:29:06;;;;;;;0.4;0.3;;;;;;;18.88;47.91406;947.5541;;;;
2021/09/30 11:31:33;;;;;;;0.7;0.3;;;;;;;18.78;47.70508;947.4714;;;;
2021/09/30 11:33:56;;;;;;;0.3;0.3;;;;;;;18.99;49.12402;947.4087;;;;
2021/09/30 11:36:21;;;;;;;0.3;0.3;;;;;;;19.22;48.13672;947.403;;;;
2021/09/30 11:38:47;;;;;;;0.4;0.3;;;;;;;19.65;48.54492;947.4144;;;;
2021/09/30 11:41:12;;;;;;;0.3;0.3;;;;;;;19.53;46.70117;947.415;;;;
2021/09/30 11:43:39;;;;;;;0.6;0.3;;;;;;;19.06;46.87305;947.356;;;;
2021/09/30 11:46:02;;;;;;;0.6;0.4;;;;;;;19.2;48.4834;947.3475;;;;
2021/09/30 11:48:29;;;;;;;0.4;0.3;;;;;;;19.44;46.36523;947.3061;;;;
2021/09/30 11:50:53;;;;;;;0.4;0.3;;;;;;;19.65;46.1543;947.248;;;;
2021/09/30 11:53:19;;;;;;;1.2;0.3;;;;;;;19.5;45.96484;947.2255;;;;
2021/09/30 11:55:48;;;;;;;0.3;0.3;;;;;;;19.34;47.82324;947.2536;;;;
2021/09/30 11:58:12;;;;;;;13;0.5;;;;;;;18.98;48.86719;947.2166;;;;
2021/09/30 12:00:39;;;;;;;1.3;0.4;;;;;;;18.78;50.81152;947.1986;;;;
2021/09/30 12:03:04;;;;;;;1.3;0.4;;;;;;;18.86;51.04102;947.2112;;;;
2021/09/30 12:05:31;;;;;;;0.4;0.4;;;;;;;19.28;46.91895;947.082;;;;
2021/09/30 12:07:54;;;;;;;0.6;0.3;;;;;;;19.69;49.22559;947.11;;;;
2021/09/30 12:10:20;;;;;;;0.6;0.3;;;;;;;20.51;45.26367;946.9406;;;;
2021/09/30 12:12:46;;;;;;;0.3;0.3;;;;;;;21.28;41.49219;946.9658;;;;
2021/09/30 12:15:11;;;;;;;1.2;0.3;;;;;;;21.73;41.07715;946.9199;;;;
2021/09/30 12:17:36;;;;;;;13.8;1.1;;;;;;;22.36;40.31543;946.8752;;;;
2021/09/30 12:20:02;;;;;;;50.3;2.1;;;;;;;22.34;38.40137;946.8943;;;;
2021/09/30 12:22:26;;;;;;;0.5;0.5;;;;;;;22.94;39.1582;946.8262;;;;
2021/09/30 12:24:52;;;;;;;25.5;1.2;;;;;;;24.44;34.91797;946.7364;;;;
2021/09/30 12:27:17;;;;;;;0.3;0.3;;;;;;;25.69;33.38477;946.716;;;;
2021/09/30 12:29:42;;;;;;;0.8;0.4;;;;;;;25.14;35.58594;946.6516;;;;
2021/09/30 12:32:07;;;;;;;0.5;0.5;;;;;;;25.74;34.13281;946.6514;;;;
2021/09/30 12:34:32;;;;;;;0.3;0.3;;;;;;;26.53;31.76563;946.5422;;;;
2021/09/30 12:36:57;;;;;;;0.2;0.2;;;;;;;26.08;34.50195;946.5406;;;;
2021/09/30 12:39:22;;;;;;;0.6;0.4;;;;;;;26.56;32.58496;946.5142;;;;
2021/09/30 12:41:47;;;;;;;0.9;0.4;;;;;;;26.52;34.02734;946.4804;;;;
2021/09/30 12:44:13;;;;;;;76.5;4.4;;;;;;;25.97;33.00293;946.4449;;;;
2021/09/30 12:46:38;;;;;;;0.3;0.3;;;;;;;25.4;34.79297;946.4194;;;;
2021/09/30 12:49:03;;;;;;;0.6;0.3;;;;;;;26.59;32.66992;946.3625;;;;
2021/09/30 12:51:28;;;;;;;0.6;0.3;;;;;;;27.31;31.37109;946.3261;;;;
2021/09/30 12:53:53;;;;;;;0.5;0.3;;;;;;;26.96;32.08105;946.2834;;;;
2021/09/30 12:56:19;;;;;;;0.2;0.2;;;;;;;26.43;33.21484;946.2012;;;;
2021/09/30 12:58:45;;;;;;;0.5;0.3;;;;;;;28.08;30.99707;946.2123;;;;
2021/09/30 13:01:09;;;;;;;0.2;0.2;;;;;;;29.37;27.80859;946.207;;;;
2021/09/30 13:03:34;;;;;;;0.5;0.3;;;;;;;28.56;29.48438;946.1666;;;;
2021/09/30 13:05:59;;;;;;;0.8;0.3;;;;;;;27.98;30.12305;946.205;;;;
2021/09/30 13:08:25;;;;;;;0.3;0.3;;;;;;;28.44;29.01172;946.1325;;;;
2021/09/30 13:10:50;;;;;;;0.2;0.2;;;;;;;29.36;28.14258;946.137;;;;
2021/09/30 13:13:15;;;;;;;1.1;0.4;;;;;;;28.38;28.98438;946.1367;;;;
2021/09/30 13:15:40;;;;;;;168.1;17.5;;;;;;;26.32;31.84668;946.0759;;;;
2021/09/30 13:18:06;;;;;;;9.4;1.9;;;;;;;25.52;33.78613;946.0525;;;;
2021/09/30 13:20:31;;;;;;;1.5;0.4;;;;;;;26.12;31.85547;946.0695;;;;
2021/09/30 13:22:56;;;;;;;0.7;0.4;;;;;;;27.79;30.72656;946.0573;;;;
2021/09/30 13:25:21;;;;;;;1;0.3;;;;;;;26.42;32.61035;945.9835;;;;
2021/09/30 13:27:46;;;;;;;1.2;0.4;;;;;;;27.97;30.50195;945.9461;;;;
2021/09/30 13:30:11;;;;;;;0.7;0.4;;;;;;;27.6;30.92773;945.9047;;;;
2021/09/30 13:32:37;;;;;;;0.5;0.2;;;;;;;28.72;28.07813;945.8783;;;;
2021/09/30 13:35:03;;;;;;;0.3;0.3;;;;;;;30.5;26.80371;945.8577;;;;
2021/09/30 13:37:28;;;;;;;0.4;0.2;;;;;;;31.53;24.80566;945.8686;;;;
2021/09/30 13:39:56;;;;;;;0.5;0.4;;;;;;;32.08;24.06836;945.8102;;;;
2021/09/30 13:42:19;;;;;;;15;1.9;;;;;;;30.83;26.11816;945.72;;;;
2021/09/30 13:44:44;;;;;;;50.1;6;;;;;;;30.84;25.49609;945.7282;;;;
2021/09/30 13:47:09;;;;;;;1.2;0.6;;;;;;;29.22;27.2998;945.7292;;;;
2021/09/30 13:49:35;;;;;;;0.9;0.4;;;;;;;30.83;25.7832;945.6624;;;;
2021/09/30 13:52:09;;;;;;;1357.8;178.5;;;;;;;29.83;27.50391;945.7048;;;;
2021/09/30 13:54:25;;;;;;;1.4;0.7;;;;;;;30.8;26.76172;945.6536;;;;
2021/09/30 13:56:50;;;;;;;1.4;0.3;;;;;;;30.24;26.97949;945.6483;;;;
2021/09/30 13:59:15;;;;;;;154.1;20.7;;;;;;;29.66;26.46777;945.5319;;;;
2021/09/30 14:01:40;;;;;;;122.6;24.7;;;;;;;29.43;27.36035;945.5552;;;;
2021/09/30 14:04:06;;;;;;;113.9;13.9;;;;;;;29.2;27.41699;945.5195;;;;
2021/09/30 14:06:31;;;;;;;2.2;1.3;;;;;;;29.38;27.33301;945.4875;;;;
2021/09/30 14:08:57;;;;;;;2.5;0.6;;;;;;;29.52;27.61621;945.464;;;;
2021/09/30 14:11:22;;;;;;;53.7;9.4;;;;;;;29.69;27.125;945.4481;;;;
2021/09/30 14:13:48;;;;;;;0.7;0.2;;;;;;;29.3;27.81738;945.4194;;;;
2021/09/30 14:16:13;;;;;;;0.9;0.5;;;;;;;29.27;27.46875;945.395;;;;
2021/09/30 14:18:38;;;;;;;1.6;0.7;;;;;;;29.06;28.36133;945.438;;;;
2021/09/30 14:21:03;;;;;;;109.8;17.8;;;;;;;28.4;28.91406;945.4247;;;;
2021/09/30 14:23:29;;;;;;;279.4;43.6;;;;;;;27.4;30.40332;945.4674;;;;
2021/09/30 14:25:54;;;;;;;0.6;0.4;;;;;;;28.07;29.85547;945.4545;;;;
2021/09/30 14:28:19;;;;;;;46.6;8.2;;;;;;;25.76;32.05469;945.448;;;;
2021/09/30 14:30:55;;;;;;;0.3;0.3;;;;;;;24.07;35.05469;945.4672;;;;
2021/09/30 14:33:18;;;;;;;0.6;0.4;;;;;;;25.12;35.70313;945.5173;;;;
2021/09/30 14:35:43;;;;;;;2.2;0.5;;;;;;;24.99;35.12598;945.5231;;;;
2021/09/30 14:38:08;;;;;;;0.6;0.3;;;;;;;25.49;34.87012;945.4803;;;;
2021/09/30 14:40:33;;;;;;;1.3;0.5;;;;;;;24.46;34.25977;945.5264;;;;
2021/09/30 14:42:59;;;;;;;0.3;0.3;;;;;;;23.08;37.0791;945.5743;;;;
2021/09/30 14:45:24;;;;;;;1.7;0.7;;;;;;;22.01;40.30664;945.5963;;;;
2021/09/30 14:47:58;;;;;;;1.2;0.5;;;;;;;20.98;42.17773;945.5845;;;;
2021/09/30 14:50:14;;;;;;;1.3;0.6;;;;;;;20.29;43.73438;945.6456;;;;
2021/09/30 14:52:39;;;;;;;1.6;0.6;;;;;;;19.82;45.09961;945.6116;;;;
2021/09/30 14:55:04;;;;;;;0.3;0.3;;;;;;;19.33;46.29492;945.6334;;;;
2021/09/30 14:57:29;;;;;;;1.2;0.6;;;;;;;18.89;47.95996;945.6686;;;;
2021/09/30 14:59:55;;;;;;;2.6;0.6;;;;;;;18.49;49.40527;945.671;;;;
2021/09/30 15:02:20;;;;;;;1;0.5;;;;;;;17.79;51.4873;945.6534;;;;
2021/09/30 15:04:45;;;;;;;0.6;0.4;;;;;;;17.72;50.9082;945.5894;;;;
2021/09/30 15:07:10;;;;;;;3;0.6;;;;;;;17.56;52.2959;945.5938;;;;
2021/09/30 15:09:36;;;;;;;1.1;0.7;;;;;;;17.56;52.23828;945.5084;;;;
2021/09/30 15:12:02;;;;;;;0.7;0.5;;;;;;;17.35;53.46484;945.5664;;;;
2021/09/30 15:14:29;;;;;;;3;0.4;;;;;;;16.65;55.46387;945.5355;;;;
2021/09/30 15:16:56;;;;;;;2.1;0.5;;;;;;;16.54;56.50293;945.5556;;;;
2021/09/30 15:19:22;;;;;;;0.7;0.6;;;;;;;16.51;56.1416;945.5773;;;;
2021/09/30 15:21:44;;;;;;;1;0.7;;;;;;;16.5;55.8252;945.5862;;;;
2021/09/30 15:24:09;;;;;;;0.9;0.5;;;;;;;16.53;56.17871;945.5436;;;;
2021/09/30 15:26:34;;;;;;;1.5;0.7;;;;;;;16.63;57.0127;945.5878;;;;
2021/09/30 15:29:00;;;;;;;2.1;0.8;;;;;;;16.71;56.62891;945.6186;;;;
2021/09/30 15:31:24;;;;;;;1;0.4;;;;;;;16.76;56.125;945.6498;;;;
2021/09/30 15:33:50;;;;;;;0.6;0.6;;;;;;;16.45;55.22949;945.6627;;;;
2021/09/30 15:36:14;;;;;;;1.5;0.6;;;;;;;16.62;55.8877;945.682;;;;
2021/09/30 15:38:39;;;;;;;0.5;0.5;;;;;;;16.6;55.54883;945.6086;;;;
2021/09/30 15:41:05;;;;;;;2.2;0.6;;;;;;;16.59;55.69922;945.6978;;;;
2021/09/30 15:43:31;;;;;;;1.3;0.6;;;;;;;16.39;56.95898;945.7509;;;;
2021/09/30 15:45:58;;;;;;;2.8;0.8;;;;;;;16.4;57.6875;945.7653;;;;
2021/09/30 15:48:21;;;;;;;3;0.6;;;;;;;16.52;57.46094;945.7888;;;;
2021/09/30 15:50:46;;;;;;;2.5;0.7;;;;;;;16.45;57.81055;945.7294;;;;
2021/09/30 15:53:12;;;;;;;2.6;0.7;;;;;;;16.48;57.43262;945.7181;;;;
2021/09/30 15:55:37;;;;;;;2.1;0.6;;;;;;;16.36;58.2959;945.8088;;;;
2021/09/30 15:58:03;;;;;;;3.9;0.7;;;;;;;16.28;57.55762;945.7783;;;;
2021/09/30 16:00:27;;;;;;;2.7;0.7;;;;;;;16.28;58.21582;945.7791;;;;
2021/09/30 16:02:52;;;;;;;1.6;0.6;;;;;;;16.27;57.75195;945.845;;;;
2021/09/30 16:05:17;;;;;;;1.7;0.6;;;;;;;16.08;57.96973;945.782;;;;
2021/09/30 16:07:42;;;;;;;2.9;0.8;;;;;;;16.12;57.9873;945.7908;;;;
2021/09/30 16:10:08;;;;;;;3.7;1;;;;;;;16.16;58.31641;945.8367;;;;
2021/09/30 16:12:33;;;;;;;0.7;0.6;;;;;;;16.04;57.51465;945.9153;;;;
2021/09/30 16:14:59;;;;;;;1.4;0.6;;;;;;;16.05;57.83789;945.8856;;;;
2021/09/30 16:17:24;;;;;;;0.9;0.7;;;;;;;15.97;58.24414;945.8885;;;;
2021/09/30 16:19:51;;;;;;;0.9;0.6;;;;;;;15.98;58.24609;945.9278;;;;
2021/09/30 16:22:15;;;;;;;1.6;0.7;;;;;;;15.85;58.42578;945.9156;;;;
2021/09/30 16:24:40;;;;;;;1.7;0.7;;;;;;;15.74;59.81934;945.9738;;;;
2021/09/30 16:27:06;;;;;;;2;0.7;;;;;;;15.58;59.55566;945.9416;;;;
2021/09/30 16:29:31;;;;;;;1;0.6;;;;;;;15.52;59.65137;946.0385;;;;
2021/09/30 16:31:56;;;;;;;0.8;0.6;;;;;;;15.47;60.1875;946.0239;;;;
2021/09/30 16:34:23;;;;;;;1;0.8;;;;;;;15.39;60.23438;946.0667;;;;
2021/09/30 16:36:48;;;;;;;0.7;0.6;;;;;;;15.35;59.96289;946.0858;;;;
2021/09/30 16:39:13;;;;;;;1;0.8;;;;;;;15.18;59.94043;946.0559;;;;
2021/09/30 16:41:38;;;;;;;1.6;0.6;;;;;;;15.11;60.42676;946.0621;;;;
2021/09/30 16:44:03;;;;;;;1.1;0.6;;;;;;;15;61.0459;946.0308;;;;
2021/09/30 16:46:28;;;;;;;1.1;0.7;;;;;;;14.75;62.34863;946.0861;;;;
2021/09/30 16:48:53;;;;;;;0.7;0.6;;;;;;;14.72;61.80273;946.13;;;;
2021/09/30 16:51:18;;;;;;;1.3;0.5;;;;;;;14.71;62.16992;946.1292;;;;
2021/09/30 16:53:44;;;;;;;1;0.7;;;;;;;14.61;63.25;946.2164;;;;
2021/09/30 16:56:10;;;;;;;2;0.7;;;;;;;14.55;63.39063;946.2112;;;;
2021/09/30 16:58:36;;;;;;;1.8;0.7;;;;;;;14.46;64.05664;946.1545;;;;
2021/09/30 17:01:01;;;;;;;1.4;0.8;;;;;;;14.36;64.04199;946.1074;;;;
2021/09/30 17:03:27;;;;;;;1.3;0.7;;;;;;;14.11;65.97461;946.1372;;;;
2021/09/30 17:05:52;;;;;;;0.9;0.6;;;;;;;13.89;66.8623;946.2023;;;;